Time;durP1;ratioP1;P1;durP2;ratioP2;P2;SDS_P1;SDS_P2;PMS_P1;PMS_P2;Temp;Humidity;BMP_temperature;BMP_pressure;BME280_temperature;BME280_humidity;BME280_pressure;Samples;Min_cycle;Max_cycle;Signal;HPM_P1;HPM_P2
2021/01/07 00:01:41;;;;;;;56.40;29.90;;;3.00;1.00;;;;;;5095220;28;20024;-89
2021/01/07 00:04:08;;;;;;;75.15;37.92;;;3.00;1.00;;;;;;5096144;28;20043;-89
2021/01/07 00:06:34;;;;;;;52.55;29.05;;;3.60;1.00;;;;;;5104693;28;20095;-89
2021/01/07 00:09:00;;;;;;;61.83;31.90;;;3.60;1.00;;;;;;5115997;28;20043;-89
2021/01/07 00:11:26;;;;;;;57.08;30.42;;;3.10;1.00;;;;;;5106475;28;20511;-89
2021/01/07 00:13:52;;;;;;;94.20;43.45;;;3.20;1.00;;;;;;5115953;28;20497;-89
2021/01/07 00:16:17;;;;;;;59.58;30.98;;;3.50;1.00;;;;;;5103843;28;20064;-89
2021/01/07 00:18:43;;;;;;;77.32;37.78;;;3.20;1.00;;;;;;5116011;28;20400;-89
2021/01/07 00:21:09;;;;;;;64.47;33.40;;;3.80;1.00;;;;;;5113720;28;20053;-89
2021/01/07 00:23:34;;;;;;;59.22;31.83;;;3.30;1.00;;;;;;5102980;28;20482;-89
2021/01/07 00:26:00;;;;;;;85.40;43.38;;;3.30;1.00;;;;;;5097542;28;20024;-88
2021/01/07 00:28:25;;;;;;;52.08;29.80;;;3.30;1.00;;;;;;5095167;28;20032;-89
2021/01/07 00:30:52;;;;;;;47.53;25.50;;;3.30;1.00;;;;;;5110915;28;20066;-89
2021/01/07 00:33:19;;;;;;;56.08;28.60;;;3.70;1.00;;;;;;5114548;28;20032;-89
2021/01/07 00:35:45;;;;;;;72.13;35.30;;;3.40;1.00;;;;;;5115611;28;20504;-89
2021/01/07 00:38:11;;;;;;;93.20;46.08;;;3.20;1.00;;;;;;5107753;28;20485;-89
2021/01/07 00:40:37;;;;;;;63.95;32.15;;;3.50;1.00;;;;;;5116631;28;20084;-89
2021/01/07 00:43:03;;;;;;;63.95;34.03;;;3.20;1.00;;;;;;5102875;28;20060;-89
2021/01/07 00:45:30;;;;;;;75.20;39.13;;;3.40;1.00;;;;;;5094784;28;20024;-89
2021/01/07 00:47:56;;;;;;;60.00;31.20;;;3.30;1.00;;;;;;5106476;28;20080;-89
2021/01/07 00:50:22;;;;;;;79.65;40.60;;;3.60;1.00;;;;;;5115410;28;20106;-89
2021/01/07 00:52:47;;;;;;;86.32;42.72;;;3.10;1.00;;;;;;5104711;27;20113;-89
2021/01/07 00:55:15;;;;;;;61.97;32.83;;;3.00;1.00;;;;;;5094569;28;20094;-89
2021/01/07 00:57:41;;;;;;;53.17;28.02;;;3.10;1.00;;;;;;5094334;28;20032;-89
2021/01/07 01:00:09;;;;;;;57.40;30.65;;;2.90;1.00;;;;;;5095078;28;20028;-89
2021/01/07 01:02:35;;;;;;;59.78;33.25;;;3.00;1.00;;;;;;5114370;28;20511;-89
2021/01/07 01:05:02;;;;;;;90.38;43.95;;;3.40;1.00;;;;;;5115107;28;20023;-89
2021/01/07 01:07:28;;;;;;;64.25;30.67;;;3.00;1.00;;;;;;5100764;28;20078;-89
2021/01/07 07:24:49;;;;;;;57.35;30.98;;;0.40;1.00;;;;;;5114376;27;20763;-91
2021/01/07 07:27:18;;;;;;;60.03;30.88;;;1.00;1.00;;;;;;5110477;28;20024;-90
2021/01/07 07:29:48;;;;;;;56.42;29.50;;;1.10;1.00;;;;;;5110068;28;20028;-90
2021/01/07 07:32:22;;;;;;;53.53;28.38;;;1.30;1.00;;;;;;5120967;28;20051;-91
2021/01/07 07:34:49;;;;;;;59.90;29.20;;;1.80;1.00;;;;;;5130928;27;20030;-91
2021/01/07 07:37:25;;;;;;;56.90;29.50;;;1.60;1.00;;;;;;5130821;28;20399;-91
2021/01/07 07:40:02;;;;;;;53.05;28.83;;;1.60;1.00;;;;;;5129302;27;20027;-91
2021/01/07 07:42:29;;;;;;;54.65;28.48;;;1.70;1.00;;;;;;5130684;27;20024;-91
2021/01/07 07:44:56;;;;;;;56.10;28.30;;;2.00;1.00;;;;;;5130380;27;20039;-91
2021/01/07 07:47:22;;;;;;;56.10;29.75;;;1.80;1.00;;;;;;5128381;27;20031;-91
2021/01/07 07:49:57;;;;;;;62.63;31.48;;;2.30;1.00;;;;;;5131268;27;20052;-91
2021/01/07 07:52:24;;;;;;;64.10;32.35;;;2.00;1.00;;;;;;5129953;28;20034;-91
2021/01/07 07:55:04;;;;;;;71.07;35.00;;;2.00;1.00;;;;;;5130142;28;20385;-91
2021/01/07 07:57:32;;;;;;;64.20;32.70;;;2.20;1.00;;;;;;5129776;28;20496;-91
2021/01/07 08:00:15;;;;;;;58.38;31.48;;;2.20;1.00;;;;;;5129957;27;20591;-91
2021/01/07 08:02:42;;;;;;;59.63;30.83;;;2.30;1.00;;;;;;5127212;28;20562;-91
2021/01/07 08:05:08;;;;;;;61.42;32.65;;;2.30;1.00;;;;;;5129795;28;20031;-91
2021/01/07 08:07:35;;;;;;;60.60;31.58;;;2.50;1.00;;;;;;5130118;27;20027;-91
2021/01/07 08:10:10;;;;;;;68.43;34.42;;;2.80;1.00;;;;;;5130058;28;20031;-91
2021/01/07 08:12:36;;;;;;;64.70;33.60;;;2.50;1.00;;;;;;5129941;27;20499;-91
2021/01/07 08:15:03;;;;;;;55.97;32.20;;;2.70;1.00;;;;;;5129490;28;20023;-91
2021/01/07 08:17:28;;;;;;;60.10;33.17;;;2.50;1.00;;;;;;5117963;28;20022;-91
2021/01/07 08:19:54;;;;;;;67.35;35.20;;;2.40;1.00;;;;;;5129842;27;20027;-91
2021/01/07 08:22:29;;;;;;;64.78;34.22;;;2.50;1.00;;;;;;5130765;27;20027;-90
2021/01/07 08:24:58;;;;;;;56.00;31.60;;;3.10;1.00;;;;;;5107016;27;20121;-91
2021/01/07 08:27:36;;;;;;;56.55;30.52;;;3.20;1.00;;;;;;5095827;28;20023;-91
2021/01/07 08:30:04;;;;;;;60.95;30.52;;;3.20;1.00;;;;;;5095576;28;20118;-91
2021/01/07 08:32:38;;;;;;;61.72;30.75;;;2.70;1.00;;;;;;5095339;28;20055;-92
2021/01/07 08:35:09;;;;;;;61.53;32.08;;;2.70;1.00;;;;;;5096247;28;20060;-93
2021/01/07 08:37:35;;;;;;;57.00;31.20;;;2.70;1.00;;;;;;5095936;28;20025;-96
2021/01/07 08:40:07;;;;;;;55.65;31.23;;;2.80;1.00;;;;;;5095418;28;20097;-91
2021/01/07 08:42:35;;;;;;;57.30;30.10;;;2.80;1.00;;;;;;5094900;28;20073;-93
2021/01/07 08:45:01;;;;;;;59.13;30.38;;;3.20;1.00;;;;;;5095503;28;20115;-96
2021/01/07 08:47:26;;;;;;;55.22;30.05;;;2.70;1.00;;;;;;5094833;28;20457;-93
2021/01/07 08:50:13;;;;;;;61.08;31.42;;;3.30;1.00;;;;;;5095085;28;20491;-93
2021/01/07 08:52:52;;;;;;;53.85;30.65;;;2.90;1.00;;;;;;5095021;28;20081;-93
2021/01/07 08:55:19;;;;;;;53.85;28.75;;;2.80;1.00;;;;;;5112542;28;20115;-94
2021/01/07 08:57:45;;;;;;;54.53;29.50;;;3.30;1.00;;;;;;5115285;28;20087;-93
2021/01/07 09:00:22;;;;;;;57.58;29.67;;;3.50;1.00;;;;;;5115570;28;20063;-94
2021/01/07 09:02:48;;;;;;;58.90;30.92;;;3.20;1.00;;;;;;5109002;28;20045;-93
2021/01/07 09:05:18;;;;;;;54.17;28.70;;;3.50;1.00;;;;;;5094887;28;20031;-93
2021/01/07 09:07:44;;;;;;;52.67;29.23;;;3.20;1.00;;;;;;5094848;28;20031;-93
2021/01/07 09:10:10;;;;;;;53.22;29.77;;;3.50;1.00;;;;;;5094949;28;20035;-92
2021/01/07 09:12:36;;;;;;;58.88;33.03;;;3.00;1.00;;;;;;5094520;28;20025;-91
2021/01/07 09:15:09;;;;;;;54.55;32.00;;;3.50;1.00;;;;;;5111072;28;20024;-91
2021/01/07 09:17:46;;;;;;;53.50;30.25;;;3.20;1.00;;;;;;5094840;28;20024;-91
2021/01/07 09:20:14;;;;;;;59.85;30.55;;;3.40;1.00;;;;;;5095668;28;20107;-91
2021/01/07 09:22:41;;;;;;;55.00;28.52;;;3.30;1.00;;;;;;5094707;28;20058;-92
2021/01/07 09:25:08;;;;;;;51.95;29.58;;;3.10;1.00;;;;;;5094425;28;20039;-91
2021/01/07 09:27:34;;;;;;;48.70;27.95;;;3.20;1.00;;;;;;5095151;28;20111;-91
2021/01/07 09:30:00;;;;;;;53.17;29.08;;;3.30;1.00;;;;;;5094404;28;20056;-90
2021/01/07 09:32:26;;;;;;;51.75;27.77;;;3.50;1.00;;;;;;5094321;28;20031;-91
2021/01/07 09:34:51;;;;;;;50.63;27.98;;;3.30;1.00;;;;;;5094471;28;20028;-90
2021/01/07 09:37:19;;;;;;;49.42;28.05;;;3.50;1.00;;;;;;5092919;28;20111;-90
2021/01/07 09:39:47;;;;;;;46.92;26.33;;;3.40;1.00;;;;;;5094032;28;20033;-90
2021/01/07 09:42:13;;;;;;;50.08;26.52;;;3.40;1.00;;;;;;5094248;28;20020;-91
2021/01/07 09:45:00;;;;;;;45.58;24.60;;;3.80;1.00;;;;;;5093746;28;20032;-90
2021/01/07 09:47:27;;;;;;;45.05;24.67;;;3.50;1.00;;;;;;5094042;28;20028;-90
2021/01/07 09:49:53;;;;;;;48.15;25.63;;;3.50;1.00;;;;;;5093970;28;20439;-90
2021/01/07 09:52:19;;;;;;;43.85;24.67;;;3.60;1.00;;;;;;5094648;28;20074;-90
2021/01/07 09:54:45;;;;;;;46.17;25.58;;;3.60;1.00;;;;;;5093534;28;20043;-90
2021/01/07 09:57:10;;;;;;;46.67;25.80;;;3.70;1.00;;;;;;5093987;28;20481;-90
2021/01/07 09:59:36;;;;;;;42.42;23.77;;;3.40;1.00;;;;;;5095233;28;20028;-90
2021/01/07 10:02:09;;;;;;;44.90;24.50;;;3.40;1.00;;;;;;5093451;28;20057;-90
2021/01/07 10:04:36;;;;;;;43.28;24.52;;;3.50;1.00;;;;;;5093441;28;20107;-90
2021/01/07 10:07:06;;;;;;;44.42;25.17;;;3.50;1.00;;;;;;5093806;28;20052;-90
2021/01/07 10:09:32;;;;;;;46.28;25.27;;;3.50;1.00;;;;;;5093437;28;20039;-90
2021/01/07 10:11:58;;;;;;;50.00;25.95;;;3.70;1.00;;;;;;5093049;28;20016;-90
2021/01/07 10:14:25;;;;;;;53.28;26.75;;;3.90;1.00;;;;;;5093424;28;20024;-90
2021/01/07 10:16:53;;;;;;;45.13;25.52;;;3.70;1.00;;;;;;5094626;28;20027;-90
2021/01/07 10:19:19;;;;;;;46.88;25.67;;;3.50;1.00;;;;;;5094784;28;20109;-90
2021/01/07 10:22:14;;;;;;;47.33;25.50;;;3.50;1.00;;;;;;5093093;28;20023;-90
2021/01/07 10:24:46;;;;;;;44.80;24.02;;;3.60;1.00;;;;;;5093192;28;20043;-90
2021/01/07 10:27:14;;;;;;;41.33;23.38;;;3.60;1.00;;;;;;5093124;28;20489;-90
2021/01/07 10:29:41;;;;;;;42.28;23.85;;;3.60;1.00;;;;;;5093344;28;20050;-90
2021/01/07 10:32:09;;;;;;;43.08;23.52;;;4.10;1.00;;;;;;5093093;28;20032;-90
2021/01/07 10:34:40;;;;;;;42.58;23.35;;;3.90;1.00;;;;;;5094155;28;20473;-90
2021/01/07 10:37:08;;;;;;;39.95;23.05;;;3.90;1.00;;;;;;5093989;28;20496;-90
2021/01/07 10:39:35;;;;;;;45.10;23.67;;;4.00;1.00;;;;;;5093063;28;20020;-90
2021/01/07 10:42:04;;;;;;;41.35;23.52;;;4.50;1.00;;;;;;5093205;28;20385;-90
2021/01/07 10:44:32;;;;;;;41.05;23.70;;;4.60;1.00;;;;;;5092889;28;20020;-90
2021/01/07 10:46:59;;;;;;;40.92;23.45;;;4.10;1.00;;;;;;5092748;28;20027;-90
2021/01/07 10:49:29;;;;;;;41.40;24.00;;;4.30;1.00;;;;;;5093984;28;20020;-89
2021/01/07 10:52:07;;;;;;;41.33;23.70;;;4.20;1.00;;;;;;5092577;28;20048;-90
2021/01/07 10:54:51;;;;;;;41.60;23.02;;;4.10;1.00;;;;;;5094119;28;20384;-90
2021/01/07 10:57:32;;;;;;;37.72;22.08;;;4.00;1.00;;;;;;5093995;28;20024;-90
2021/01/07 11:00:04;;;;;;;40.85;23.60;;;3.90;1.00;;;;;;5092975;28;20107;-90
2021/01/07 11:02:52;;;;;;;40.58;23.05;;;3.90;1.00;;;;;;5093087;28;20063;-90
2021/01/07 11:05:21;;;;;;;44.00;23.50;;;4.00;1.00;;;;;;5093434;28;20039;-90
2021/01/07 11:08:18;;;;;;;40.63;22.65;;;4.20;1.00;;;;;;5092469;28;20127;-90
2021/01/07 11:10:50;;;;;;;41.60;23.30;;;4.00;1.00;;;;;;5092693;28;20060;-90
2021/01/07 11:13:20;;;;;;;39.95;22.70;;;4.40;1.00;;;;;;5093633;28;20039;-90
2021/01/07 11:15:46;;;;;;;44.60;24.95;;;4.30;1.00;;;;;;5098588;28;20051;-90
2021/01/07 11:18:14;;;;;;;44.92;24.92;;;4.10;1.00;;;;;;5109405;28;20023;-90
2021/01/07 11:20:53;;;;;;;41.55;23.92;;;4.70;1.00;;;;;;5093083;28;20512;-90
2021/01/07 11:23:20;;;;;;;42.78;23.40;;;4.20;1.00;;;;;;5088018;28;20044;-90
2021/01/07 11:25:48;;;;;;;41.38;24.02;;;4.10;1.00;;;;;;5093440;28;20078;-89
2021/01/07 11:28:18;;;;;;;43.63;24.13;;;4.60;1.00;;;;;;5093783;28;20036;-90
2021/01/07 11:30:44;;;;;;;48.45;24.13;;;4.10;1.00;;;;;;5092854;28;20024;-90
2021/01/07 11:33:11;;;;;;;41.38;24.05;;;4.40;1.00;;;;;;5092001;28;20185;-90
2021/01/07 11:35:37;;;;;;;47.55;25.40;;;4.70;1.00;;;;;;5092284;28;20562;-90
2021/01/07 11:38:04;;;;;;;44.30;24.48;;;4.80;1.00;;;;;;5092327;28;20517;-90
2021/01/07 11:40:40;;;;;;;40.25;23.55;;;4.70;1.00;;;;;;5092327;28;20080;-90
2021/01/07 11:43:31;;;;;;;44.42;24.58;;;4.80;1.00;;;;;;5092592;28;20035;-90
2021/01/07 11:46:01;;;;;;;42.72;23.65;;;5.00;1.00;;;;;;5071503;28;20032;-89
2021/01/07 11:48:30;;;;;;;42.60;23.92;;;5.10;1.00;;;;;;5075360;28;20044;-90
2021/01/07 11:51:10;;;;;;;46.60;23.90;;;5.00;1.00;;;;;;5071021;28;20115;-90
2021/01/07 11:53:36;;;;;;;41.42;24.27;;;5.10;1.00;;;;;;5071204;28;20115;-90
2021/01/07 11:56:02;;;;;;;38.17;22.92;;;5.10;1.00;;;;;;5054693;28;20111;-89
2021/01/07 11:58:30;;;;;;;44.97;24.75;;;5.10;1.00;;;;;;5071302;28;20401;-90
2021/01/07 12:00:57;;;;;;;40.45;22.45;;;5.20;1.00;;;;;;5058040;28;20128;-89
2021/01/07 12:03:28;;;;;;;41.58;25.80;;;5.20;1.00;;;;;;5067228;28;20046;-90
2021/01/07 12:05:56;;;;;;;43.22;24.52;;;5.50;1.00;;;;;;5078083;28;20020;-90
2021/01/07 12:08:40;;;;;;;42.90;26.00;;;5.60;1.00;;;;;;5078202;28;20123;-89
2021/01/07 12:11:11;;;;;;;39.47;23.23;;;5.70;1.00;;;;;;5078276;28;20038;-89
2021/01/07 12:13:46;;;;;;;41.63;25.60;;;5.70;1.00;;;;;;5077933;28;20063;-90
2021/01/07 12:16:18;;;;;;;42.08;22.55;;;5.80;1.00;;;;;;5085786;28;20040;-90
2021/01/07 12:18:49;;;;;;;44.42;23.90;;;5.60;1.00;;;;;;5061538;28;20478;-90
2021/01/07 12:21:15;;;;;;;38.35;22.58;;;5.40;1.00;;;;;;5074289;28;20119;-90
2021/01/07 12:23:44;;;;;;;41.08;22.42;;;5.40;1.00;;;;;;5087660;28;20048;-90
2021/01/07 12:26:11;;;;;;;42.78;24.23;;;5.10;1.00;;;;;;5095267;28;20024;-89
2021/01/07 12:28:38;;;;;;;42.92;23.95;;;5.30;1.00;;;;;;5095674;28;20035;-90
2021/01/07 12:31:07;;;;;;;39.28;24.30;;;5.30;1.00;;;;;;5095150;28;20115;-90
2021/01/07 12:33:51;;;;;;;39.42;23.63;;;5.40;1.00;;;;;;5094387;28;20043;-90
2021/01/07 12:36:34;;;;;;;45.60;29.10;;;5.40;1.00;;;;;;5095499;28;20035;-90
2021/01/07 12:39:05;;;;;;;36.85;21.65;;;5.50;1.00;;;;;;5096488;28;20039;-90
2021/01/07 12:41:39;;;;;;;38.90;23.25;;;5.40;1.00;;;;;;5096547;28;20087;-90
2021/01/07 12:44:09;;;;;;;38.00;22.77;;;5.40;1.00;;;;;;5096099;28;20064;-89
2021/01/07 12:46:42;;;;;;;44.65;31.42;;;5.20;1.00;;;;;;5094246;28;20080;-90
2021/01/07 12:49:08;;;;;;;45.58;29.42;;;5.00;1.00;;;;;;5115368;28;20028;-90
2021/01/07 12:51:35;;;;;;;37.90;21.75;;;5.30;1.00;;;;;;5115625;28;20020;-90
2021/01/07 12:54:02;;;;;;;36.50;22.58;;;5.20;1.00;;;;;;5110901;28;20031;-89
2021/01/07 12:56:36;;;;;;;39.88;22.67;;;5.30;1.00;;;;;;5095106;28;20107;-88
2021/01/07 12:59:08;;;;;;;41.45;24.85;;;5.00;1.00;;;;;;5095111;28;20035;-90
2021/01/07 13:01:52;;;;;;;40.97;24.67;;;5.20;1.00;;;;;;5094399;28;20024;-90
2021/01/07 13:04:47;;;;;;;43.60;24.02;;;5.20;1.00;;;;;;5094669;28;20028;-90
2021/01/07 13:07:13;;;;;;;41.95;23.73;;;5.10;1.00;;;;;;5094697;28;20028;-90
2021/01/07 13:09:43;;;;;;;41.17;23.38;;;5.00;1.00;;;;;;5094842;28;20024;-90
2021/01/07 13:12:09;;;;;;;38.65;22.65;;;4.90;1.00;;;;;;5094772;28;20028;-88
2021/01/07 13:14:37;;;;;;;42.33;22.95;;;4.70;1.00;;;;;;5094326;28;20030;-90
2021/01/07 13:17:03;;;;;;;42.65;25.35;;;4.70;1.00;;;;;;5106545;28;20077;-90
2021/01/07 13:19:29;;;;;;;43.08;25.00;;;4.80;1.00;;;;;;5115197;28;20027;-90
2021/01/07 13:21:55;;;;;;;43.00;25.55;;;4.80;1.00;;;;;;5116124;28;20024;-89
2021/01/07 13:24:21;;;;;;;44.33;25.05;;;4.80;1.00;;;;;;5115013;28;20044;-91
2021/01/07 13:26:48;;;;;;;44.67;24.25;;;4.70;1.00;;;;;;5097918;28;20040;-89
2021/01/07 13:29:16;;;;;;;42.22;24.60;;;4.70;1.00;;;;;;5094062;28;20028;-90
2021/01/07 13:31:45;;;;;;;45.35;23.95;;;4.80;1.00;;;;;;5094583;28;20408;-90
2021/01/07 13:34:11;;;;;;;40.55;24.30;;;4.80;1.00;;;;;;5114516;28;20020;-90
2021/01/07 13:36:37;;;;;;;44.28;24.38;;;4.70;1.00;;;;;;5114802;28;20051;-89
2021/01/07 13:39:03;;;;;;;43.28;24.42;;;4.80;1.00;;;;;;5114550;28;20480;-90
2021/01/07 13:41:33;;;;;;;44.63;23.80;;;4.60;1.00;;;;;;5114446;28;20122;-89
2021/01/07 13:44:01;;;;;;;42.35;25.92;;;4.60;1.00;;;;;;5114720;28;20030;-90
2021/01/07 13:46:26;;;;;;;46.30;24.10;;;4.90;1.00;;;;;;5109857;28;20040;-90
2021/01/07 13:48:59;;;;;;;43.50;26.27;;;4.80;1.00;;;;;;5107724;28;20029;-90
2021/01/07 13:51:28;;;;;;;38.80;22.40;;;4.90;1.00;;;;;;5114460;28;20477;-90
2021/01/07 13:53:55;;;;;;;42.10;23.23;;;4.90;1.00;;;;;;5113738;28;20042;-89
2021/01/07 13:56:21;;;;;;;36.35;22.52;;;5.10;1.00;;;;;;5115146;28;20032;-89
2021/01/07 13:58:48;;;;;;;39.58;22.08;;;4.80;1.00;;;;;;5114068;28;20022;-89
2021/01/07 14:01:14;;;;;;;37.63;21.52;;;5.00;1.00;;;;;;5109624;28;20024;-90
2021/01/07 14:03:40;;;;;;;36.80;22.05;;;5.10;1.00;;;;;;5093577;28;20034;-89
2021/01/07 14:06:08;;;;;;;39.03;22.65;;;5.10;1.00;;;;;;5093705;28;20032;-89
2021/01/07 14:08:51;;;;;;;39.35;23.02;;;5.10;1.00;;;;;;5092810;28;20846;-89
2021/01/07 14:11:21;;;;;;;39.03;21.77;;;5.10;1.00;;;;;;5093234;28;20493;-89
2021/01/07 14:13:47;;;;;;;39.28;21.92;;;5.10;1.00;;;;;;5093189;28;20055;-89
2021/01/07 14:16:13;;;;;;;38.10;22.38;;;5.10;1.00;;;;;;5095037;28;20062;-89
2021/01/07 14:18:42;;;;;;;43.10;23.27;;;5.10;1.00;;;;;;5094860;28;20020;-89
2021/01/07 14:21:08;;;;;;;40.55;23.08;;;5.00;1.00;;;;;;5094371;28;20039;-89
2021/01/07 14:23:34;;;;;;;38.40;22.05;;;4.90;1.00;;;;;;5093454;28;20048;-89
2021/01/07 14:26:04;;;;;;;38.58;22.83;;;5.00;1.00;;;;;;5109340;28;20504;-89
2021/01/07 14:28:54;;;;;;;36.78;22.20;;;5.20;1.00;;;;;;5113479;28;20106;-90
2021/01/07 14:31:22;;;;;;;40.00;23.02;;;5.10;1.00;;;;;;5113623;28;20027;-90
2021/01/07 14:33:50;;;;;;;37.45;21.25;;;5.00;1.00;;;;;;5100981;28;20493;-90
2021/01/07 14:36:20;;;;;;;37.25;22.00;;;5.00;1.00;;;;;;5093162;28;20020;-90
2021/01/07 14:38:51;;;;;;;38.33;22.17;;;4.80;1.00;;;;;;5093230;28;20111;-90
2021/01/07 14:41:21;;;;;;;40.40;22.05;;;4.90;1.00;;;;;;5092681;28;20035;-90
2021/01/07 14:43:48;;;;;;;40.10;21.75;;;5.00;1.00;;;;;;5092545;28;20046;-90
2021/01/07 14:46:18;;;;;;;42.45;22.17;;;5.00;1.00;;;;;;5093342;28;20035;-90
2021/01/07 14:48:48;;;;;;;37.17;21.52;;;5.10;1.00;;;;;;5093338;28;20034;-90
2021/01/07 14:51:16;;;;;;;37.88;21.83;;;4.90;1.00;;;;;;5092939;28;20032;-90
2021/01/07 14:53:43;;;;;;;35.03;21.20;;;5.00;1.00;;;;;;5092621;28;20109;-90
2021/01/07 14:56:13;;;;;;;43.17;22.48;;;4.70;1.00;;;;;;5092715;28;20035;-90
2021/01/07 14:59:11;;;;;;;38.67;21.35;;;4.90;1.00;;;;;;5092644;28;20020;-90
2021/01/07 15:01:49;;;;;;;37.13;20.23;;;5.10;1.00;;;;;;5092986;28;20020;-90
2021/01/07 15:04:31;;;;;;;35.17;21.95;;;5.10;1.00;;;;;;5093864;28;20024;-90
2021/01/07 15:07:19;;;;;;;34.13;20.33;;;5.00;1.00;;;;;;5096431;28;20034;-90
2021/01/07 15:09:48;;;;;;;37.38;21.33;;;4.90;1.00;;;;;;5092802;28;20165;-90
2021/01/07 15:12:25;;;;;;;36.90;21.70;;;4.80;1.00;;;;;;5092610;28;20039;-90
2021/01/07 15:14:58;;;;;;;40.72;22.15;;;4.60;1.00;;;;;;5092283;28;20021;-90
2021/01/07 15:17:29;;;;;;;38.63;21.15;;;4.60;1.00;;;;;;5111749;28;20020;-90
2021/01/07 15:20:06;;;;;;;39.05;21.65;;;4.60;1.00;;;;;;5114234;28;20050;-90
2021/01/07 15:22:47;;;;;;;40.50;21.20;;;4.60;1.00;;;;;;5111369;28;20063;-91
2021/01/07 15:25:15;;;;;;;39.38;22.38;;;4.70;1.00;;;;;;5114348;28;20020;-90
2021/01/07 15:27:52;;;;;;;40.63;23.65;;;4.60;1.00;;;;;;5114103;28;20365;-90
2021/01/07 15:30:25;;;;;;;43.13;23.00;;;4.60;1.00;;;;;;5114151;28;20024;-90
2021/01/07 15:32:58;;;;;;;39.13;22.48;;;4.60;1.00;;;;;;5112855;28;20031;-90
2021/01/07 15:35:32;;;;;;;42.67;23.02;;;4.60;1.00;;;;;;5114310;28;20016;-90
2021/01/07 15:38:35;;;;;;;40.85;23.60;;;4.60;1.00;;;;;;5112779;28;20024;-90
2021/01/07 15:41:25;;;;;;;39.58;22.15;;;4.40;1.00;;;;;;5117076;28;20077;-90
2021/01/07 15:44:01;;;;;;;39.17;21.25;;;4.30;1.00;;;;;;5117617;28;20032;-90
2021/01/07 15:46:52;;;;;;;40.47;21.42;;;4.50;1.00;;;;;;5116660;28;20023;-90
2021/01/07 15:49:42;;;;;;;39.67;23.45;;;4.40;1.00;;;;;;5116769;28;20399;-90
2021/01/07 15:52:32;;;;;;;37.58;22.50;;;4.30;1.00;;;;;;5099660;28;20035;-90
2021/01/07 15:55:41;;;;;;;39.42;23.08;;;4.40;1.00;;;;;;5096496;28;20031;-90
2021/01/07 15:58:15;;;;;;;36.78;20.77;;;4.40;1.00;;;;;;5058208;28;20024;-90
2021/01/07 16:00:47;;;;;;;38.42;22.13;;;4.50;1.00;;;;;;5075020;28;20535;-91
2021/01/07 16:03:37;;;;;;;39.25;22.40;;;4.40;1.00;;;;;;5058474;28;20037;-90
2021/01/07 16:06:27;;;;;;;41.30;22.42;;;4.40;1.00;;;;;;5058813;28;20029;-90
2021/01/07 16:08:53;;;;;;;41.10;23.30;;;4.50;1.00;;;;;;5058380;28;20064;-90
2021/01/07 16:11:18;;;;;;;45.22;25.25;;;4.70;1.00;;;;;;5074707;28;20091;-90
2021/01/07 16:13:45;;;;;;;53.95;29.63;;;4.60;1.00;;;;;;5074405;28;20124;-90
2021/01/07 16:16:11;;;;;;;46.95;28.35;;;4.90;1.00;;;;;;5058023;28;20041;-90
2021/01/07 16:18:41;;;;;;;76.43;38.65;;;4.40;1.00;;;;;;5074975;28;20028;-90
2021/01/07 16:21:14;;;;;;;55.47;29.00;;;4.70;1.00;;;;;;5057766;28;20041;-90
2021/01/07 16:23:46;;;;;;;43.65;25.40;;;4.60;1.00;;;;;;5074987;28;20090;-90
2021/01/07 16:26:23;;;;;;;41.92;25.52;;;4.40;1.00;;;;;;5074475;28;20138;-90
2021/01/07 16:28:49;;;;;;;43.92;24.67;;;4.40;1.00;;;;;;5075766;28;20036;-90
2021/01/07 16:31:15;;;;;;;42.83;24.58;;;4.70;1.00;;;;;;5095512;28;20126;-90
2021/01/07 16:33:41;;;;;;;43.80;24.65;;;4.40;1.00;;;;;;5095482;28;20479;-90
2021/01/07 16:36:09;;;;;;;42.20;24.23;;;4.40;1.00;;;;;;5099193;28;20040;-90
2021/01/07 16:38:38;;;;;;;46.05;25.58;;;4.40;1.00;;;;;;5095532;28;20020;-90
2021/01/07 16:41:04;;;;;;;51.72;30.17;;;4.40;1.00;;;;;;5095085;28;20496;-90
2021/01/07 16:43:31;;;;;;;35.05;22.92;;;4.40;1.00;;;;;;5095300;28;20016;-90
2021/01/07 16:45:58;;;;;;;33.42;20.60;;;4.70;1.00;;;;;;5094751;28;20082;-90
2021/01/07 16:48:24;;;;;;;29.33;18.92;;;4.10;1.00;;;;;;5096535;28;20027;-90
2021/01/07 16:50:50;;;;;;;28.88;18.63;;;4.40;1.00;;;;;;5095238;28;20035;-90
2021/01/07 16:53:16;;;;;;;41.05;23.20;;;4.50;1.00;;;;;;5095071;28;20419;-90
2021/01/07 16:55:41;;;;;;;35.80;20.98;;;4.20;1.00;;;;;;5095015;28;20576;-90
2021/01/07 16:58:07;;;;;;;32.83;19.30;;;4.20;1.00;;;;;;5094758;28;20055;-90
2021/01/07 17:00:33;;;;;;;27.17;17.50;;;3.80;1.00;;;;;;5095035;28;20025;-90
2021/01/07 17:02:58;;;;;;;28.95;18.73;;;4.10;1.00;;;;;;5095192;28;20028;-90
2021/01/07 17:05:24;;;;;;;32.33;18.35;;;4.10;1.00;;;;;;5098155;28;20032;-90
2021/01/07 17:07:49;;;;;;;25.50;15.25;;;3.80;1.00;;;;;;5115269;28;20400;-90
2021/01/07 17:10:16;;;;;;;31.45;19.13;;;3.70;1.00;;;;;;5114895;28;20032;-90
2021/01/07 17:12:42;;;;;;;31.02;19.13;;;4.10;1.00;;;;;;5115139;28;20024;-90
2021/01/07 17:15:08;;;;;;;25.55;16.50;;;3.70;1.00;;;;;;5115023;28;20023;-90
2021/01/07 17:17:34;;;;;;;25.50;16.67;;;3.60;1.00;;;;;;5115006;28;20040;-90
2021/01/07 17:19:59;;;;;;;30.25;17.92;;;4.00;1.00;;;;;;5112137;28;20081;-91
2021/01/07 17:22:25;;;;;;;30.00;17.58;;;3.70;1.00;;;;;;5114694;28;20023;-90
2021/01/07 17:24:51;;;;;;;27.20;16.67;;;3.90;1.00;;;;;;5114737;28;20038;-90
2021/01/07 17:27:16;;;;;;;33.88;18.88;;;3.60;1.00;;;;;;5116259;28;20027;-90
2021/01/07 17:29:42;;;;;;;27.48;17.92;;;4.00;1.00;;;;;;5114926;28;20473;-91
2021/01/07 17:32:08;;;;;;;28.75;17.98;;;3.80;1.00;;;;;;5115093;28;20076;-90
2021/01/07 17:34:35;;;;;;;31.83;19.83;;;4.20;1.00;;;;;;5111633;28;20027;-90
2021/01/07 17:37:03;;;;;;;31.65;18.38;;;4.20;1.00;;;;;;5114024;28;20024;-90
2021/01/07 17:39:29;;;;;;;35.55;20.15;;;4.00;1.00;;;;;;5114406;28;20408;-90
2021/01/07 17:41:54;;;;;;;50.70;26.25;;;3.90;1.00;;;;;;5114517;28;20024;-90
2021/01/07 17:44:20;;;;;;;35.60;19.60;;;3.90;1.00;;;;;;5114299;28;20027;-90
2021/01/07 17:46:46;;;;;;;35.72;20.88;;;4.00;1.00;;;;;;5114750;28;20028;-90
2021/01/07 17:49:11;;;;;;;46.35;25.05;;;3.90;1.00;;;;;;5113620;28;20038;-90
2021/01/07 17:51:40;;;;;;;39.10;21.92;;;3.60;1.00;;;;;;5093817;28;20039;-90
2021/01/07 17:54:06;;;;;;;34.28;20.35;;;3.40;1.00;;;;;;5093963;28;20062;-91
2021/01/07 17:56:32;;;;;;;37.58;21.85;;;3.30;1.00;;;;;;5093290;28;20031;-90
2021/01/07 17:58:58;;;;;;;27.02;17.13;;;3.30;1.00;;;;;;5093729;28;20024;-89
2021/01/07 18:01:30;;;;;;;25.55;17.95;;;3.30;1.00;;;;;;5094025;28;20103;-91
2021/01/07 18:03:57;;;;;;;29.40;19.65;;;3.40;1.00;;;;;;5093817;28;20032;-90
2021/01/07 18:06:33;;;;;;;32.88;21.23;;;3.20;1.00;;;;;;5096549;27;20085;-91
2021/01/07 18:08:59;;;;;;;35.95;21.40;;;3.20;1.00;;;;;;5093872;28;20044;-91
2021/01/07 18:11:25;;;;;;;39.50;23.42;;;3.20;1.00;;;;;;5093855;28;20028;-90
2021/01/07 18:13:50;;;;;;;54.67;29.00;;;3.30;1.00;;;;;;5093703;28;20032;-90
2021/01/07 18:16:16;;;;;;;63.67;33.15;;;3.50;1.00;;;;;;5093086;28;20074;-91
2021/01/07 18:18:42;;;;;;;56.58;31.17;;;3.40;1.00;;;;;;5093007;28;20039;-90
2021/01/07 18:21:08;;;;;;;56.40;32.80;;;3.50;1.00;;;;;;5113561;28;20027;-91
2021/01/07 18:23:34;;;;;;;52.88;32.33;;;3.60;1.00;;;;;;5113640;28;20043;-91
2021/01/07 18:26:01;;;;;;;39.42;25.10;;;3.40;1.00;;;;;;5113858;28;20129;-90
2021/01/07 18:28:26;;;;;;;42.15;25.88;;;3.70;1.00;;;;;;5113919;28;20024;-90
2021/01/07 18:30:52;;;;;;;42.28;25.67;;;3.50;1.00;;;;;;5113873;28;20034;-90
2021/01/07 18:33:20;;;;;;;33.70;21.45;;;3.50;1.00;;;;;;5108428;28;20089;-91
2021/01/07 18:35:45;;;;;;;35.25;23.70;;;3.50;1.00;;;;;;5113471;28;20019;-91
2021/01/07 18:38:11;;;;;;;32.15;20.20;;;3.40;1.00;;;;;;5114781;28;20120;-90
2021/01/07 18:40:36;;;;;;;31.00;19.73;;;3.50;1.00;;;;;;5112192;28;20026;-90
2021/01/07 18:43:02;;;;;;;29.63;19.08;;;3.50;1.00;;;;;;5113628;28;20085;-90
2021/01/07 18:45:28;;;;;;;31.33;19.35;;;3.80;1.00;;;;;;5113424;28;20028;-91
2021/01/07 18:47:53;;;;;;;40.53;22.85;;;3.50;1.00;;;;;;5113262;28;20511;-91
2021/01/07 18:50:19;;;;;;;41.38;23.85;;;3.40;1.00;;;;;;5113413;28;20120;-91
2021/01/07 18:52:45;;;;;;;39.83;25.42;;;3.40;1.00;;;;;;5105135;28;20034;-90
2021/01/07 18:55:11;;;;;;;37.33;22.52;;;3.50;1.00;;;;;;5113565;28;20027;-90
2021/01/07 18:57:36;;;;;;;38.15;22.52;;;3.50;1.00;;;;;;5114317;28;20028;-90
2021/01/07 19:00:05;;;;;;;32.28;20.38;;;3.90;1.00;;;;;;5112976;28;20028;-91
2021/01/07 19:02:32;;;;;;;28.35;19.33;;;3.40;1.00;;;;;;5104856;28;20028;-91
2021/01/07 19:04:58;;;;;;;30.48;18.92;;;3.50;1.00;;;;;;5093877;28;20024;-91
2021/01/07 19:07:27;;;;;;;32.55;21.17;;;3.50;1.00;;;;;;5092225;28;20035;-91
2021/01/07 19:09:53;;;;;;;30.25;21.10;;;3.40;1.00;;;;;;5092830;28;20016;-91
2021/01/07 19:12:19;;;;;;;27.75;18.75;;;3.90;1.00;;;;;;5092543;28;20021;-91
2021/01/07 19:14:45;;;;;;;30.00;18.45;;;3.50;1.00;;;;;;5096768;28;20034;-90
2021/01/07 19:17:10;;;;;;;28.77;18.95;;;3.50;1.00;;;;;;5095563;28;20142;-91